METAR Data
IDs: Format: Raw Decoded Include TAF

Data at: 0901 UTC 13 Aug 2022

METAR for:KNDZ (Milton/Whiting-S(NAS, FL, US)
Text:KNDZ 130756Z AUTO 00000KT 9SM CLR 22/22 A3000 RMK AO2 SLP143 T02220222 $
Temperature: 22.2°C ( 72°F)
Dewpoint: 22.2°C ( 72°F) [RH = 100%]
Pressure (altimeter):30.00 inches Hg (1016.0 mb) [Sea level pressure: 1014.3 mb]
Winds:calm
Visibility: 9 sm ( 14 km)
Ceiling:at least 12,000 feet AGL
Clouds:sky clear below 12,000 feet AGL
QC Flag:automated observation with no human augmentation; SOME DATA ABOVE MAY BE INACCURATE!!!"$" is an indication the sensor requires maintenance.

TAF for:KNDZ (Milton/Whiting-S(NAS, FL, US)
Text:No data found